PWSweather.com
Personal Weather Stations
Station Observations
KCTCOLEB1
Sandy Brook, Colebrook, CT 06021

Sandy BrookColebrook, CT 06021

Lat: 42.0018, Lon: -73.0825

Elevation: 935

Station Type: Davis Vantage Pro2 + Solar + UV

Latest ConditionsUpdated 6:10:01 AM EDT Monday, Jul 28, 2014
Currently Today's Max Today's Min Today's Average
Temperature 67.0°F19.4°C 67.0°F19.4°C 62.7°F17.1°C 63.8°F17.7°C
Dew Point 66.7°F19.3°C 66.7°F19.3°C 62.1°F16.7°C 63.3°F17.4°C
Winds 0.5 mph ENE0.8 kmh ENE 0.9 mph WSW1.4 kmh WSW - 0.1 mph 0.2 kmh
Wind Gusts 1.0 mph1.6 kmh 1.0 mph1.6 kmh - -
Humidity 99% 99% 97% 98%
Pressure 29.53 in1000.0 mb 29.65 in1004.1 mb 29.50 in999.0 mb -
Precipitation - 0.06 in1.5 mm - -
Hour Temp Dew Point Humidity Winds Wind Gusts Pressure Precip Precip Rate Daily Precip Total
06:10 AM 67.0°F19.4°C 66.7°F19.3°C 99% 0.5 mph ENE0.8 kmh ENE 1.0 mph1.6 kmh 29.53 in1000.0 mb 0.00 in0.0 mm 0.00 in/hr0.0 mm/hr 0.06 in1.5 mm
06:00 AM 66.8°F19.3°C 66.5°F19.2°C 99% 0.4 mph ENE0.6 kmh ENE 1.0 mph1.6 kmh 29.52 in999.7 mb 0.00 in0.0 mm 0.00 in/hr0.0 mm/hr 0.06 in1.5 mm
05:50 AM 66.5°F19.2°C 66.2°F19.0°C 99% 0.3 mph WSW0.5 kmh WSW 1.0 mph1.6 kmh 29.52 in999.7 mb 0.01 in0.3 mm 0.06 in/hr1.5 mm/hr 0.06 in1.5 mm
05:40 AM 65.6°F18.7°C 65.3°F18.5°C 99% 0.9 mph WSW1.4 kmh WSW 1.0 mph1.6 kmh 29.52 in999.7 mb 0.01 in0.3 mm 0.06 in/hr1.5 mm/hr 0.05 in1.3 mm
05:30 AM 65.1°F18.4°C 64.8°F18.2°C 99% 0.7 mph WSW1.1 kmh WSW 1.0 mph1.6 kmh 29.50 in999.0 mb 0.00 in0.0 mm 0.00 in/hr0.0 mm/hr 0.04 in1.0 mm
05:20 AM 64.6°F18.1°C 64.3°F17.9°C 99% 0.5 mph W0.8 kmh W 1.0 mph1.6 kmh 29.50 in999.0 mb 0.01 in0.3 mm 0.06 in/hr1.5 mm/hr 0.04 in1.0 mm
05:10 AM 64.5°F18.1°C 64.2°F17.9°C 99% 0.1 mph W0.2 kmh W 1.0 mph1.6 kmh 29.50 in999.0 mb 0.00 in0.0 mm 0.00 in/hr0.0 mm/hr 0.03 in0.8 mm
05:00 AM 64.4°F18.0°C 64.1°F17.8°C 99% Calm Calm -- 29.52 in999.7 mb 0.00 in0.0 mm 0.00 in/hr0.0 mm/hr 0.03 in0.8 mm
04:50 AM 64.2°F17.9°C 63.9°F17.7°C 99% Calm Calm -- 29.53 in1000.0 mb 0.00 in0.0 mm 0.00 in/hr0.0 mm/hr 0.03 in0.8 mm
04:40 AM 64.2°F17.9°C 63.9°F17.7°C 99% 0.3 mph W0.5 kmh W 1.0 mph1.6 kmh 29.53 in1000.0 mb 0.00 in0.0 mm 0.00 in/hr0.0 mm/hr 0.03 in0.8 mm
04:30 AM 64.0°F17.8°C 63.7°F17.6°C 99% 0.1 mph W0.2 kmh W -- 29.55 in1000.7 mb 0.00 in0.0 mm 0.00 in/hr0.0 mm/hr 0.03 in0.8 mm
04:20 AM 64.0°F17.8°C 63.7°F17.6°C 99% Calm Calm -- 29.55 in1000.7 mb 0.00 in0.0 mm 0.00 in/hr0.0 mm/hr 0.03 in0.8 mm
04:10 AM 63.8°F17.7°C 63.5°F17.5°C 99% 0.1 mph W0.2 kmh W -- 29.57 in1001.4 mb 0.00 in0.0 mm 0.00 in/hr0.0 mm/hr 0.03 in0.8 mm
04:00 AM 63.7°F17.6°C 63.4°F17.4°C 99% Calm Calm -- 29.55 in1000.7 mb 0.00 in0.0 mm 0.00 in/hr0.0 mm/hr 0.03 in0.8 mm
03:50 AM 63.6°F17.6°C 63.3°F17.4°C 99% Calm Calm -- 29.56 in1001.0 mb 0.00 in0.0 mm 0.00 in/hr0.0 mm/hr 0.03 in0.8 mm
03:40 AM 63.4°F17.4°C 62.8°F17.1°C 98% Calm Calm -- 29.57 in1001.4 mb 0.01 in0.3 mm 0.06 in/hr1.5 mm/hr 0.03 in0.8 mm
03:30 AM 63.3°F17.4°C 62.7°F17.1°C 98% Calm Calm -- 29.57 in1001.4 mb 0.01 in0.3 mm 0.06 in/hr1.5 mm/hr 0.02 in0.5 mm
03:20 AM 63.2°F17.3°C 62.6°F17.0°C 98% 0.2 mph WSW0.3 kmh WSW 1.0 mph1.6 kmh 29.58 in1001.7 mb 0.00 in0.0 mm 0.00 in/hr0.0 mm/hr 0.01 in0.3 mm
03:10 AM 63.0°F17.2°C 62.4°F16.9°C 98% 0.1 mph WSW0.2 kmh WSW 1.0 mph1.6 kmh 29.59 in1002.0 mb 0.01 in0.3 mm 0.06 in/hr1.5 mm/hr 0.01 in0.3 mm
03:00 AM 63.0°F17.2°C 62.4°F16.9°C 98% Calm Calm -- 29.58 in1001.7 mb 0.00 in0.0 mm 0.00 in/hr0.0 mm/hr 0.00 in0.0 mm
02:50 AM 62.9°F17.2°C 62.3°F16.8°C 98% Calm Calm -- 29.58 in1001.7 mb 0.00 in0.0 mm 0.00 in/hr0.0 mm/hr 0.00 in0.0 mm
02:40 AM 62.8°F17.1°C 62.2°F16.8°C 98% Calm Calm -- 29.58 in1001.7 mb 0.00 in0.0 mm 0.00 in/hr0.0 mm/hr 0.00 in0.0 mm
02:30 AM 62.8°F17.1°C 62.2°F16.8°C 98% Calm Calm -- 29.59 in1002.0 mb 0.00 in0.0 mm 0.00 in/hr0.0 mm/hr 0.00 in0.0 mm
02:20 AM 62.8°F17.1°C 62.2°F16.8°C 98% Calm Calm -- 29.60 in1002.4 mb 0.00 in0.0 mm 0.00 in/hr0.0 mm/hr 0.00 in0.0 mm
02:10 AM 62.7°F17.1°C 62.1°F16.7°C 98% Calm Calm -- 29.60 in1002.4 mb 0.00 in0.0 mm 0.00 in/hr0.0 mm/hr 0.00 in0.0 mm
02:00 AM 62.8°F17.1°C 62.2°F16.8°C 98% Calm Calm -- 29.60 in1002.4 mb 0.00 in0.0 mm 0.00 in/hr0.0 mm/hr 0.00 in0.0 mm
01:50 AM 62.9°F17.2°C 62.3°F16.8°C 98% Calm Calm -- 29.61 in1002.7 mb 0.00 in0.0 mm 0.00 in/hr0.0 mm/hr 0.00 in0.0 mm
01:40 AM 62.9°F17.2°C 62.3°F16.8°C 98% Calm Calm -- 29.61 in1002.7 mb 0.00 in0.0 mm 0.00 in/hr0.0 mm/hr 0.00 in0.0 mm
01:30 AM 63.1°F17.3°C 62.2°F16.8°C 97% Calm Calm -- 29.61 in1002.7 mb 0.00 in0.0 mm 0.00 in/hr0.0 mm/hr 0.00 in0.0 mm
01:20 AM 63.3°F17.4°C 62.4°F16.9°C 97% Calm Calm -- 29.61 in1002.7 mb 0.00 in0.0 mm 0.00 in/hr0.0 mm/hr 0.00 in0.0 mm
01:10 AM 63.2°F17.3°C 62.3°F16.8°C 97% Calm Calm -- 29.62 in1003.0 mb 0.00 in0.0 mm 0.00 in/hr0.0 mm/hr 0.00 in0.0 mm
01:00 AM 63.4°F17.4°C 62.8°F17.1°C 98% Calm Calm -- 29.63 in1003.4 mb 0.00 in0.0 mm 0.00 in/hr0.0 mm/hr 0.00 in0.0 mm
12:50 AM 63.3°F17.4°C 62.8°F17.1°C 98% Calm Calm -- 29.63 in1003.4 mb 0.00 in0.0 mm 0.00 in/hr0.0 mm/hr 0.00 in0.0 mm
12:40 AM 63.4°F17.4°C 62.8°F17.1°C 98% Calm Calm 1.0 mph1.6 kmh 29.64 in1003.7 mb 0.00 in0.0 mm 0.00 in/hr0.0 mm/hr 0.00 in0.0 mm
12:30 AM 63.4°F17.4°C 62.8°F17.1°C 98% Calm Calm -- 29.65 in1004.1 mb 0.00 in0.0 mm 0.00 in/hr0.0 mm/hr 0.00 in0.0 mm
12:20 AM 63.6°F17.6°C 62.7°F17.1°C 97% Calm Calm -- 29.65 in1004.1 mb 0.00 in0.0 mm 0.00 in/hr0.0 mm/hr 0.00 in0.0 mm
12:10 AM 63.7°F17.6°C 62.8°F17.1°C 97% Calm Calm -- 29.65 in1004.1 mb 0.00 in0.0 mm 0.00 in/hr0.0 mm/hr 0.00 in0.0 mm
12:00 AM 63.9°F17.7°C 63.0°F17.2°C 97% Calm Calm -- 29.65 in1004.1 mb 0.00 in0.0 mm 0.00 in/hr0.0 mm/hr 0.00 in0.0 mm